createdAt,value
2018-09-03T00:00:52.675Z,88.46
2018-09-03T00:01:52.664Z,88.25
2018-09-03T00:02:52.693Z,88.56
2018-09-03T00:03:52.644Z,88.66
2018-09-03T00:04:52.631Z,88.46
2018-09-03T00:05:52.620Z,88.76
2018-09-03T00:06:52.608Z,88.86
2018-09-03T00:07:52.619Z,88.60
2018-09-03T00:08:52.586Z,87.79
2018-09-03T00:09:52.574Z,87.69
2018-09-03T00:10:52.565Z,87.69
2018-09-03T00:11:52.554Z,88.80
2018-09-03T00:12:52.561Z,88.80
2018-09-03T00:13:52.531Z,88.09
2018-09-03T00:14:52.518Z,88.60
2018-09-03T00:15:52.507Z,89.01
2018-09-03T00:16:52.497Z,89.11
2018-09-03T00:17:52.506Z,89.11
2018-09-03T00:18:52.478Z,88.60
2018-09-03T00:19:52.484Z,88.90
2018-09-03T00:20:52.450Z,88.80
2018-09-03T00:21:52.440Z,89.11
2018-09-03T00:22:52.428Z,89.51
2018-09-03T00:23:52.439Z,89.41
2018-09-03T00:24:52.406Z,89.92
2018-09-03T00:25:52.394Z,90.02
2018-09-03T00:26:52.384Z,89.72
2018-09-03T00:27:52.393Z,90.53
2018-09-03T00:28:52.366Z,90.02
2018-09-03T00:29:52.351Z,89.81
2018-09-03T00:30:52.362Z,89.76
2018-09-03T00:31:52.328Z,90.22
2018-09-03T00:32:52.315Z,90.32
2018-09-03T00:33:52.307Z,90.06
2018-09-03T00:34:52.294Z,90.22
2018-09-03T00:35:52.303Z,90.42
2018-09-03T00:36:52.293Z,90.53
2018-09-03T00:37:52.285Z,89.72
2018-09-03T00:38:52.249Z,89.72
2018-09-03T00:39:52.243Z,89.11
2018-09-03T00:40:52.256Z,89.45
2018-09-03T00:41:52.215Z,89.96
2018-09-03T00:42:52.204Z,89.21
2018-09-03T00:43:52.193Z,89.41
2018-09-03T00:44:52.181Z,89.72
2018-09-03T00:45:52.190Z,89.31
2018-09-03T00:46:52.165Z,89.21
2018-09-03T00:47:52.150Z,89.21
2018-09-03T00:48:52.137Z,89.61
2018-09-03T00:49:52.126Z,89.31
2018-09-03T00:50:52.138Z,89.41
2018-09-03T00:51:52.124Z,89.72
2018-09-03T00:52:52.112Z,89.21
2018-09-03T00:53:52.084Z,88.95
2018-09-03T00:54:52.072Z,89.21
2018-09-03T00:55:52.058Z,90.42
2018-09-03T00:56:52.068Z,90.32
2018-09-03T00:57:52.038Z,89.41
2018-09-03T00:58:52.038Z,89.31
2018-09-03T00:59:52.038Z,89.21
2018-09-03T01:00:52.003Z,89.01
2018-09-03T01:01:51.993Z,89.41
2018-09-03T01:02:51.980Z,89.11
2018-09-03T01:03:51.968Z,89.51
2018-09-03T01:04:51.978Z,89.21
2018-09-03T01:05:51.966Z,88.60
2018-09-03T01:06:51.935Z,88.90
2018-09-03T01:07:51.924Z,89.11
2018-09-03T01:08:51.912Z,90.02
2018-09-03T01:09:51.925Z,89.61
2018-09-03T01:10:51.890Z,89.81
2018-09-03T01:11:51.881Z,89.96
2018-09-03T01:12:51.873Z,89.41
2018-09-03T01:13:51.856Z,90.02
2018-09-03T01:14:51.866Z,89.72
2018-09-03T01:15:51.840Z,90.12
2018-09-03T01:16:51.824Z,90.12
2018-09-03T01:17:51.813Z,90.12
2018-09-03T01:18:51.801Z,89.11
2018-09-03T01:19:51.810Z,89.61
2018-09-03T01:20:51.778Z,89.72
2018-09-03T01:21:51.766Z,90.12
2018-09-03T01:22:51.758Z,89.11
2018-09-03T01:23:51.744Z,89.72
2018-09-03T01:24:51.754Z,89.31
2018-09-03T01:25:51.750Z,89.81
2018-09-03T01:26:51.711Z,89.11
2018-09-03T01:27:51.699Z,90.32
2018-09-03T01:28:51.688Z,90.62
2018-09-03T01:29:51.676Z,90.62
2018-09-03T01:30:51.695Z,91.03
2018-09-03T01:31:51.656Z,90.73
2018-09-03T01:32:51.644Z,90.67
2018-09-03T01:33:51.632Z,90.22
2018-09-03T01:34:51.621Z,90.77
2018-09-03T01:35:51.637Z,89.51
2018-09-03T01:36:51.599Z,89.41
2018-09-03T01:37:51.588Z,90.12
2018-09-03T01:38:51.580Z,89.11
2018-09-03T01:39:51.594Z,89.41
2018-09-03T01:40:51.554Z,89.01
2018-09-03T01:41:51.541Z,89.41
2018-09-03T01:42:51.531Z,89.41
2018-09-03T01:43:51.520Z,89.21
2018-09-03T01:44:51.530Z,89.21
2018-09-03T01:45:51.500Z,89.21
2018-09-03T01:46:51.486Z,89.41
2018-09-03T01:47:51.474Z,89.31
2018-09-03T01:48:51.463Z,89.01
2018-09-03T01:49:51.482Z,89.31
2018-09-03T01:50:51.441Z,89.51
2018-09-03T01:51:51.429Z,89.11
2018-09-03T01:52:51.418Z,89.21
2018-09-03T01:53:51.407Z,89.41
2018-09-03T01:54:51.417Z,89.51
2018-09-03T01:55:51.390Z,89.11
2018-09-03T01:56:51.373Z,89.61
2018-09-03T01:57:51.362Z,89.61
2018-09-03T01:58:51.351Z,89.81
2018-09-03T01:59:51.375Z,89.81
2018-09-03T02:00:51.327Z,89.61
2018-09-03T02:01:51.320Z,89.72
2018-09-03T02:02:51.306Z,89.72
2018-09-03T02:03:51.295Z,89.72
2018-09-03T02:04:51.316Z,90.12
2018-09-03T02:05:51.272Z,90.93
2018-09-03T02:06:51.261Z,90.73
2018-09-03T02:07:51.249Z,91.54
2018-09-03T02:08:51.244Z,91.34
2018-09-03T02:09:51.297Z,90.73
2018-09-03T02:10:51.218Z,91.03
2018-09-03T02:11:51.205Z,90.83
2018-09-03T02:12:51.194Z,91.13
2018-09-03T02:13:51.186Z,91.85
2018-09-03T02:14:51.242Z,90.83
2018-09-03T02:15:51.160Z,90.83
2018-09-03T02:16:51.148Z,90.73
2018-09-03T02:17:51.138Z,90.83
2018-09-03T02:18:51.126Z,90.93
2018-09-03T02:19:51.139Z,90.93
2018-09-03T02:20:51.127Z,91.44
2018-09-03T02:21:51.093Z,91.24
2018-09-03T02:22:51.083Z,90.73
2018-09-03T02:23:51.077Z,91.64
2018-09-03T02:24:51.075Z,91.34
2018-09-03T02:25:51.070Z,91.34
2018-09-03T02:26:51.041Z,91.64
2018-09-03T02:27:51.026Z,91.44
2018-09-03T02:28:51.015Z,91.24
2018-09-03T02:29:51.004Z,91.74
2018-09-03T02:30:51.030Z,91.85
2018-09-03T02:31:50.980Z,92.05
2018-09-03T02:32:50.972Z,92.86
2018-09-03T02:33:50.958Z,93.37
2018-09-03T02:34:50.947Z,93.57
2018-09-03T02:35:50.957Z,93.67
2018-09-03T02:36:50.927Z,93.61
2018-09-03T02:37:50.917Z,93.81
2018-09-03T02:38:50.904Z,93.81
2018-09-03T02:39:50.891Z,94.12
2018-09-03T02:40:50.904Z,94.62
2018-09-03T02:41:50.874Z,95.03
2018-09-03T02:42:50.860Z,94.83
2018-09-03T02:43:50.849Z,94.42
2018-09-03T02:44:50.837Z,95.23
2018-09-03T02:45:50.847Z,95.23
2018-09-03T02:46:50.815Z,94.93
2018-09-03T02:47:50.835Z,95.34
2018-09-03T02:48:50.790Z,95.74
2018-09-03T02:49:50.781Z,95.64
2018-09-03T02:50:50.767Z,95.43
2018-09-03T02:51:50.780Z,95.74
2018-09-03T02:52:50.745Z,95.64
2018-09-03T02:53:50.734Z,95.94
2018-09-03T02:54:50.722Z,95.64
2018-09-03T02:55:50.713Z,96.25
2018-09-03T02:56:50.721Z,95.94
2018-09-03T02:57:50.689Z,96.04
2018-09-03T02:58:50.679Z,96.35
2018-09-03T02:59:50.666Z,97.16
2018-09-03T03:00:50.677Z,97.06
2018-09-03T03:01:50.644Z,96.96
2018-09-03T03:02:50.635Z,96.86
2018-09-03T03:03:50.621Z,96.90
2018-09-03T03:04:50.610Z,96.66
2018-09-03T03:05:50.622Z,96.75
2018-09-03T03:06:50.617Z,96.75
2018-09-03T03:07:50.584Z,96.86
2018-09-03T03:08:50.565Z,97.06
2018-09-03T03:09:50.554Z,97.47
2018-09-03T03:10:50.543Z,97.47
2018-09-03T03:11:50.678Z,97.26
2018-09-03T03:12:50.526Z,97.16
2018-09-03T03:13:50.509Z,97.16
2018-09-03T03:14:50.499Z,97.87
2018-09-03T03:15:50.486Z,97.87
2018-09-03T03:16:50.514Z,97.87
2018-09-03T03:17:50.473Z,98.02
2018-09-03T03:18:50.453Z,97.87
2018-09-03T03:19:50.442Z,97.87
2018-09-03T03:20:50.431Z,97.16
2018-09-03T03:21:50.462Z,97.26
2018-09-03T03:22:50.415Z,97.36
2018-09-03T03:23:50.397Z,97.77
2018-09-03T03:24:50.418Z,97.06
2018-09-03T03:25:50.375Z,97.67
2018-09-03T03:26:50.362Z,97.47
2018-09-03T03:27:50.356Z,97.77
2018-09-03T03:28:50.342Z,97.87
2018-09-03T03:29:50.351Z,97.87
2018-09-03T03:30:50.324Z,97.47
2018-09-03T03:31:50.317Z,97.97
2018-09-03T03:32:50.297Z,97.77
2018-09-03T03:33:50.287Z,97.67
2018-09-03T03:34:50.294Z,97.56
2018-09-03T03:35:50.263Z,97.36
2018-09-03T03:36:50.252Z,97.87
2018-09-03T03:37:50.241Z,97.26
2018-09-03T03:38:50.229Z,97.87
2018-09-03T03:39:50.239Z,97.36
2018-09-03T03:40:50.207Z,97.26
2018-09-03T03:41:50.197Z,97.56
2018-09-03T03:42:50.184Z,97.87
2018-09-03T03:43:50.173Z,97.77
2018-09-03T03:44:50.182Z,97.47
2018-09-03T03:45:50.189Z,97.67
2018-09-03T03:46:50.139Z,97.92
2018-09-03T03:47:50.128Z,97.81
2018-09-03T03:48:50.124Z,97.51
2018-09-03T03:49:50.116Z,97.31
2018-09-03T03:50:50.123Z,97.71
2018-09-03T03:51:50.084Z,97.51
2018-09-03T03:52:50.072Z,97.31
2018-09-03T03:53:50.061Z,98.12
2018-09-03T03:54:50.068Z,98.07
2018-09-03T03:55:50.068Z,97.67
2018-09-03T03:56:50.031Z,97.97
2018-09-03T03:57:50.017Z,98.12
2018-09-03T03:58:50.004Z,98.12
2018-09-03T03:59:49.994Z,98.63
2018-09-03T04:00:50.004Z,98.32
2018-09-03T04:01:49.971Z,98.58
2018-09-03T04:02:49.960Z,98.58
2018-09-03T04:03:49.968Z,98.63
2018-09-03T04:04:49.969Z,98.83
2018-09-03T04:05:49.926Z,98.63
2018-09-03T04:06:49.916Z,98.63
2018-09-03T04:07:49.925Z,98.73
2018-09-03T04:08:49.893Z,98.83
2018-09-03T04:09:49.902Z,98.83
2018-09-03T04:10:49.871Z,98.73
2018-09-03T04:11:49.858Z,98.73
2018-09-03T04:12:49.873Z,98.73
2018-09-03T04:13:49.836Z,98.73
2018-09-03T04:14:49.854Z,98.73
2018-09-03T04:15:49.813Z,98.52
2018-09-03T04:16:49.803Z,98.52
2018-09-03T04:17:49.794Z,98.32
2018-09-03T04:18:49.781Z,98.52
2018-09-03T04:19:49.791Z,98.43
2018-09-03T04:20:49.759Z,98.43
2018-09-03T04:21:49.747Z,98.63
2018-09-03T04:22:49.750Z,98.63
2018-09-03T04:23:49.723Z,98.32
2018-09-03T04:24:49.740Z,98.02
2018-09-03T04:25:49.701Z,98.52
2018-09-03T04:26:49.697Z,98.32
2018-09-03T04:27:49.679Z,98.32
2018-09-03T04:28:49.721Z,98.32
2018-09-03T04:29:49.680Z,98.43
2018-09-03T04:30:49.646Z,98.43
2018-09-03T04:31:49.655Z,98.12
2018-09-03T04:32:49.624Z,98.22
2018-09-03T04:33:49.612Z,98.52
2018-09-03T04:34:49.602Z,98.32
2018-09-03T04:35:49.593Z,97.71
2018-09-03T04:36:49.600Z,98.32
2018-09-03T04:37:49.568Z,98.12
2018-09-03T04:38:49.599Z,98.52
2018-09-03T04:39:49.545Z,98.22
2018-09-03T04:40:49.536Z,98.63
2018-09-03T04:41:49.566Z,98.63
2018-09-03T04:42:49.532Z,98.02
2018-09-03T04:43:49.499Z,98.52
2018-09-03T04:44:49.489Z,98.28
2018-09-03T04:45:49.507Z,98.12
2018-09-03T04:46:49.468Z,98.32
2018-09-03T04:47:49.478Z,98.52
2018-09-03T04:48:49.444Z,98.12
2018-09-03T04:49:49.433Z,98.52
2018-09-03T04:50:49.422Z,98.18
2018-09-03T04:51:49.433Z,98.38
2018-09-03T04:52:49.400Z,98.28
2018-09-03T04:53:49.402Z,97.77
2018-09-03T04:54:49.746Z,98.38
2018-09-03T04:55:49.365Z,98.07
2018-09-03T04:56:49.377Z,98.07
2018-09-03T04:57:49.343Z,98.48
2018-09-03T04:58:49.353Z,98.48
2018-09-03T04:59:49.321Z,98.07
2018-09-03T05:00:49.310Z,97.97
2018-09-03T05:01:49.305Z,98.38
2018-09-03T05:02:49.287Z,98.58
2018-09-03T05:03:49.297Z,98.07
2018-09-03T05:04:49.286Z,98.23
2018-09-03T05:05:49.382Z,98.18
2018-09-03T05:06:49.242Z,98.23
2018-09-03T05:07:49.239Z,98.23
2018-09-03T05:08:49.221Z,98.43
2018-09-03T05:09:49.224Z,98.38
2018-09-03T05:10:49.199Z,98.33
2018-09-03T05:11:49.273Z,98.33
2018-09-03T05:12:49.176Z,98.43
2018-09-03T05:13:49.165Z,98.63
2018-09-03T05:14:49.177Z,98.33
2018-09-03T05:15:49.148Z,98.63
2018-09-03T05:16:49.155Z,97.62
2018-09-03T05:17:49.120Z,98.43
2018-09-03T05:18:49.108Z,98.03
2018-09-03T05:19:49.154Z,98.74
2018-09-03T05:20:49.125Z,98.23
2018-09-03T05:21:49.107Z,98.13
2018-09-03T05:22:49.064Z,98.33
2018-09-03T05:23:49.054Z,97.92
2018-09-03T05:24:49.049Z,98.13
2018-09-03T05:25:49.030Z,98.33
2018-09-03T05:26:49.045Z,98.13
2018-09-03T05:27:49.007Z,98.23
2018-09-03T05:28:48.997Z,98.33
2018-09-03T05:29:48.985Z,98.23
2018-09-03T05:30:48.974Z,98.33
2018-09-03T05:31:48.997Z,98.03
2018-09-03T05:32:48.950Z,98.54
2018-09-03T05:33:48.939Z,98.23
2018-09-03T05:34:48.928Z,98.49
2018-09-03T05:35:48.919Z,98.13
2018-09-03T05:36:48.944Z,98.18
2018-09-03T05:37:48.897Z,98.13
2018-09-03T05:38:48.884Z,98.63
2018-09-03T05:39:48.965Z,98.54
2018-09-03T05:40:48.860Z,98.63
2018-09-03T05:41:48.874Z,98.63
2018-09-03T05:42:48.842Z,97.98
2018-09-03T05:43:48.847Z,97.92
2018-09-03T05:44:48.833Z,97.52
2018-09-03T05:45:48.935Z,97.78
2018-09-03T05:46:48.850Z,98.08
2018-09-03T05:47:48.782Z,97.88
2018-09-03T05:48:48.776Z,98.28
2018-09-03T05:49:48.781Z,98.69
2018-09-03T05:50:48.748Z,98.59
2018-09-03T05:51:48.739Z,98.39
2018-09-03T05:52:48.724Z,98.39
2018-09-03T05:53:48.714Z,98.28
2018-09-03T05:54:48.725Z,98.18
2018-09-03T05:55:48.691Z,97.98
2018-09-03T05:56:48.679Z,98.28
2018-09-03T05:57:48.668Z,97.88
2018-09-03T05:58:48.658Z,98.28
2018-09-03T05:59:48.667Z,98.18
2018-09-03T06:00:48.639Z,98.18
2018-09-03T06:01:48.623Z,98.49
2018-09-03T06:02:48.627Z,98.59
2018-09-03T06:03:48.604Z,98.14
2018-09-03T06:04:48.657Z,98.03
2018-09-03T06:05:48.580Z,97.94
2018-09-03T06:06:48.567Z,98.44
2018-09-03T06:07:48.556Z,98.44
2018-09-03T06:08:48.545Z,98.34
2018-09-03T06:09:48.556Z,98.65
2018-09-03T06:10:48.522Z,97.63
2018-09-03T06:11:48.511Z,97.53
2018-09-03T06:12:48.499Z,97.43
2018-09-03T06:13:48.528Z,97.58
2018-09-03T06:14:48.479Z,97.63
2018-09-03T06:15:48.465Z,97.08
2018-09-03T06:16:48.457Z,96.57
2018-09-03T06:17:48.485Z,96.57
2018-09-03T06:18:48.456Z,96.42
2018-09-03T06:19:48.425Z,95.82
2018-09-03T06:20:48.408Z,95.57
2018-09-03T06:21:48.397Z,95.07
2018-09-03T06:22:48.417Z,95.47
2018-09-03T06:23:48.376Z,94.62
2018-09-03T06:24:48.363Z,94.42
2018-09-03T06:25:48.355Z,93.71
2018-09-03T06:26:48.398Z,93.40
2018-09-03T06:27:48.352Z,94.51
2018-09-03T06:28:48.324Z,93.40
2018-09-03T06:29:48.308Z,93.20
2018-09-03T06:30:48.335Z,93.10
2018-09-03T06:31:48.285Z,93.51
2018-09-03T06:32:48.293Z,93.91
2018-09-03T06:33:48.262Z,94.11
2018-09-03T06:34:48.252Z,93.96
2018-09-03T06:35:48.302Z,94.47
2018-09-03T06:36:48.229Z,93.36
2018-09-03T06:37:48.218Z,93.36
2018-09-03T06:38:48.227Z,93.16
2018-09-03T06:39:48.197Z,92.71
2018-09-03T06:40:48.183Z,92.35
2018-09-03T06:41:48.175Z,92.10
2018-09-03T06:42:48.164Z,92.91
2018-09-03T06:43:48.175Z,92.30
2018-09-03T06:44:48.138Z,91.50
2018-09-03T06:45:48.165Z,92.41
2018-09-03T06:46:48.115Z,91.19
2018-09-03T06:47:48.129Z,92.10
2018-09-03T06:48:48.093Z,92.61
2018-09-03T06:49:48.081Z,92.10
2018-09-03T06:50:48.083Z,92.06
2018-09-03T06:51:48.060Z,91.70
2018-09-03T06:52:48.112Z,92.30
2018-09-03T06:53:48.040Z,92.16
2018-09-03T06:54:48.025Z,92.36
2018-09-03T06:55:48.020Z,92.26
2018-09-03T06:56:48.003Z,91.31
2018-09-03T06:57:48.014Z,90.81
2018-09-03T06:58:47.982Z,91.21
2018-09-03T06:59:47.970Z,90.86
2018-09-03T07:00:47.958Z,90.56
2018-09-03T07:01:47.947Z,90.97
2018-09-03T07:02:47.960Z,90.46
2018-09-03T07:03:47.926Z,90.56
2018-09-03T07:04:47.914Z,90.92
2018-09-03T07:05:47.901Z,91.22
2018-09-03T07:06:47.902Z,90.88
2018-09-03T07:07:47.901Z,90.68
2018-09-03T07:08:47.868Z,89.67
2018-09-03T07:09:47.858Z,88.62
2018-09-03T07:10:47.848Z,88.68
2018-09-03T07:11:47.855Z,87.31
2018-09-03T07:12:47.826Z,87.82
2018-09-03T07:13:47.820Z,86.30
2018-09-03T07:14:47.800Z,85.30
2018-09-03T07:15:47.810Z,87.21
2018-09-03T07:16:47.778Z,88.52
2018-09-03T07:17:47.766Z,87.01
2018-09-03T07:18:47.830Z,86.16
2018-09-03T07:19:47.750Z,86.93
2018-09-03T07:20:47.755Z,84.21
2018-09-03T07:21:47.749Z,83.71
2018-09-03T07:22:47.712Z,83.51
2018-09-03T07:23:47.701Z,83.71
2018-09-03T07:24:47.689Z,83.11
2018-09-03T07:25:47.699Z,83.31
2018-09-03T07:26:47.688Z,84.75
2018-09-03T07:27:47.655Z,83.59
2018-09-03T07:28:47.697Z,85.20
2018-09-03T07:29:47.634Z,85.44
2018-09-03T07:30:47.642Z,84.83
2018-09-03T07:31:47.610Z,86.55
2018-09-03T07:32:47.600Z,86.75
2018-09-03T07:33:47.588Z,86.65
2018-09-03T07:34:47.578Z,86.35
2018-09-03T07:35:47.587Z,85.94
2018-09-03T07:36:47.555Z,87.09
2018-09-03T07:37:47.544Z,87.25
2018-09-03T07:38:47.545Z,88.81
2018-09-03T07:39:47.522Z,88.04
2018-09-03T07:40:47.530Z,88.00
2018-09-03T07:41:47.499Z,89.11
2018-09-03T07:42:47.488Z,88.90
2018-09-03T07:43:47.476Z,88.20
2018-09-03T07:44:47.487Z,89.55
2018-09-03T07:45:47.454Z,89.21
2018-09-03T07:46:47.444Z,89.11
2018-09-03T07:47:47.453Z,89.15
2018-09-03T07:48:47.441Z,87.94
2018-09-03T07:49:47.409Z,88.90
2018-09-03T07:50:47.398Z,88.45
2018-09-03T07:51:47.387Z,88.60
2018-09-03T07:52:47.376Z,89.05
2018-09-03T07:53:47.389Z,88.60
2018-09-03T07:54:47.355Z,88.75
2018-09-03T07:55:47.344Z,88.81
2018-09-03T07:56:47.330Z,88.30
2018-09-03T07:57:47.339Z,88.76
2018-09-03T07:58:47.331Z,89.06
2018-09-03T07:59:47.297Z,87.15
2018-09-03T08:00:47.288Z,87.15
2018-09-03T08:01:47.275Z,87.55
2018-09-03T08:02:47.267Z,87.90
2018-09-03T08:03:47.273Z,87.19
2018-09-03T08:04:47.241Z,87.49
2018-09-03T08:05:47.231Z,86.79
2018-09-03T08:06:47.219Z,86.49
2018-09-03T08:07:47.207Z,86.24
2018-09-03T08:08:47.219Z,86.95
2018-09-03T08:09:47.207Z,87.29
2018-09-03T08:10:47.174Z,86.55
2018-09-03T08:11:47.162Z,86.35
2018-09-03T08:12:47.182Z,85.94
2018-09-03T08:13:47.143Z,87.05
2018-09-03T08:14:47.161Z,85.44
2018-09-03T08:15:47.120Z,85.84
2018-09-03T08:16:47.108Z,86.15
2018-09-03T08:17:47.095Z,85.44
2018-09-03T08:18:47.086Z,85.84
2018-09-03T08:19:47.095Z,85.24
2018-09-03T08:20:47.083Z,86.55
2018-09-03T08:21:47.051Z,86.75
2018-09-03T08:22:47.043Z,86.30
2018-09-03T08:23:47.034Z,87.17
2018-09-03T08:24:47.017Z,85.16
2018-09-03T08:25:47.027Z,84.51
2018-09-03T08:26:46.995Z,83.81
2018-09-03T08:27:46.983Z,83.47
2018-09-03T08:28:46.994Z,82.60
2018-09-03T08:29:46.961Z,84.61
2018-09-03T08:30:46.972Z,85.22
2018-09-03T08:31:46.939Z,85.38
2018-09-03T08:32:46.927Z,84.67
2018-09-03T08:33:46.917Z,85.88
2018-09-03T08:34:46.909Z,85.58
2018-09-03T08:35:46.908Z,83.76
2018-09-03T08:36:46.884Z,84.88
2018-09-03T08:37:46.874Z,86.28
2018-09-03T08:38:46.860Z,86.28
2018-09-03T08:39:46.885Z,86.08
2018-09-03T08:40:46.876Z,85.31
2018-09-03T08:41:46.828Z,84.81
2018-09-03T08:42:46.815Z,85.22
2018-09-03T08:43:46.803Z,86.72
2018-09-03T08:44:46.821Z,86.63
2018-09-03T08:45:46.803Z,85.78
2018-09-03T08:46:46.773Z,84.67
2018-09-03T08:47:46.759Z,84.07
2018-09-03T08:48:46.748Z,85.17
2018-09-03T08:49:46.736Z,84.67
2018-09-03T08:50:46.749Z,84.77
2018-09-03T08:51:46.713Z,84.53
2018-09-03T08:52:46.704Z,85.14
2018-09-03T08:53:46.691Z,85.74
2018-09-03T08:54:46.701Z,82.72
2018-09-03T08:55:46.669Z,82.72
2018-09-03T08:56:46.685Z,82.32
2018-09-03T08:57:46.646Z,82.42
2018-09-03T08:58:46.635Z,82.62
2018-09-03T08:59:46.648Z,83.33
2018-09-03T09:00:46.633Z,82.66
2018-09-03T09:01:46.600Z,84.37
2018-09-03T09:02:46.590Z,83.76
2018-09-03T09:03:46.584Z,83.97
2018-09-03T09:04:46.567Z,84.81
2018-09-03T09:05:46.605Z,84.47
2018-09-03T09:06:46.545Z,84.47
2018-09-03T09:07:46.535Z,85.11
2018-09-03T09:08:46.522Z,86.22
2018-09-03T09:09:46.535Z,86.32
2018-09-03T09:10:46.500Z,85.92
2018-09-03T09:11:46.521Z,85.92
2018-09-03T09:12:46.516Z,85.72
2018-09-03T09:13:46.467Z,85.92
2018-09-03T09:14:46.457Z,87.02
2018-09-03T09:15:46.444Z,85.96
2018-09-03T09:16:46.433Z,86.02
2018-09-03T09:17:46.460Z,85.76
2018-09-03T09:18:46.411Z,86.57
2018-09-03T09:19:46.400Z,87.47
2018-09-03T09:20:46.391Z,86.97
2018-09-03T09:21:46.377Z,88.18
2018-09-03T09:22:46.387Z,87.87
2018-09-03T09:23:46.354Z,87.67
2018-09-03T09:24:46.344Z,87.27
2018-09-03T09:25:46.332Z,87.82
2018-09-03T09:26:46.321Z,87.92
2018-09-03T09:27:46.347Z,88.62
2018-09-03T09:28:46.300Z,88.52
2018-09-03T09:29:46.288Z,88.42
2018-09-03T09:30:46.276Z,88.52
2018-09-03T09:31:46.265Z,88.92
2018-09-03T09:32:46.275Z,88.72
2018-09-03T09:33:46.243Z,88.52
2018-09-03T09:34:46.232Z,88.66
2018-09-03T09:35:46.233Z,88.26
2018-09-03T09:36:46.224Z,88.42
2018-09-03T09:37:46.225Z,88.02
2018-09-03T09:38:46.186Z,88.72
2018-09-03T09:39:46.175Z,88.42
2018-09-03T09:40:46.164Z,89.73
2018-09-03T09:41:46.152Z,90.03
2018-09-03T09:42:46.162Z,90.58
2018-09-03T09:43:46.170Z,90.88
2018-09-03T09:44:46.121Z,90.98
2018-09-03T09:45:46.109Z,91.42
2018-09-03T09:46:46.096Z,91.93
2018-09-03T09:47:46.086Z,92.13
2018-09-03T09:48:46.097Z,91.83
2018-09-03T09:49:46.066Z,91.93
2018-09-03T09:50:46.052Z,93.24
2018-09-03T09:51:46.063Z,92.54
2018-09-03T09:52:46.030Z,92.74
2018-09-03T09:53:46.018Z,92.13
2018-09-03T09:54:46.041Z,92.83
2018-09-03T09:55:45.996Z,93.04
2018-09-03T09:56:45.985Z,93.60
2018-09-03T09:57:45.973Z,93.70
2018-09-03T09:58:45.965Z,94.20
2018-09-03T09:59:45.972Z,93.19
2018-09-03T10:00:45.941Z,92.99
2018-09-03T10:01:45.952Z,92.90
2018-09-03T10:02:45.919Z,92.79
2018-09-03T10:03:45.908Z,92.39
2018-09-03T10:04:45.895Z,91.78
2018-09-03T10:05:45.905Z,93.10
2018-09-03T10:06:45.874Z,92.49
2018-09-03T10:07:45.862Z,92.90
2018-09-03T10:08:45.849Z,94.31
2018-09-03T10:09:45.840Z,93.70
2018-09-03T10:10:45.853Z,94.06
2018-09-03T10:11:45.818Z,93.40
2018-09-03T10:12:45.826Z,93.05
2018-09-03T10:13:45.794Z,93.05
2018-09-03T10:14:45.783Z,92.79
2018-09-03T10:15:45.772Z,92.55
2018-09-03T10:16:45.782Z,92.95
2018-09-03T10:17:45.750Z,93.05
2018-09-03T10:18:45.739Z,91.74
2018-09-03T10:19:45.729Z,91.94
2018-09-03T10:20:45.764Z,92.05
2018-09-03T10:21:45.704Z,91.64
2018-09-03T10:22:45.701Z,92.05
2018-09-03T10:23:45.681Z,91.74
2018-09-03T10:24:45.674Z,92.09
2018-09-03T10:25:45.691Z,92.14
2018-09-03T10:26:45.648Z,92.09
2018-09-03T10:27:45.637Z,92.09
2018-09-03T10:28:45.630Z,92.99
2018-09-03T10:29:45.615Z,92.69
2018-09-03T10:30:45.627Z,93.10
2018-09-03T10:31:45.658Z,93.10
2018-09-03T10:32:45.582Z,92.90
2018-09-03T10:33:45.570Z,91.78
2018-09-03T10:34:45.582Z,91.99
2018-09-03T10:35:45.556Z,92.19
2018-09-03T10:36:45.593Z,92.69
2018-09-03T10:37:45.525Z,92.90
2018-09-03T10:38:45.514Z,91.69
2018-09-03T10:39:45.503Z,91.18
2018-09-03T10:40:45.523Z,92.59
2018-09-03T10:41:45.481Z,92.69
2018-09-03T10:42:45.472Z,93.10
2018-09-03T10:43:45.459Z,92.90
2018-09-03T10:44:45.448Z,92.85
2018-09-03T10:45:45.463Z,92.49
2018-09-03T10:46:45.449Z,93.15
2018-09-03T10:47:45.506Z,93.66
2018-09-03T10:48:45.425Z,92.79
2018-09-03T10:49:45.392Z,92.69
2018-09-03T10:50:45.382Z,93.40
2018-09-03T10:51:45.392Z,94.06
2018-09-03T10:52:45.358Z,93.55
2018-09-03T10:53:45.369Z,93.15
2018-09-03T10:54:45.357Z,92.65
2018-09-03T10:55:45.325Z,93.05
2018-09-03T10:56:45.335Z,93.51
2018-09-03T10:57:45.302Z,94.12
2018-09-03T10:58:45.314Z,93.61
2018-09-03T10:59:45.302Z,94.01
2018-09-03T11:00:45.272Z,92.91
2018-09-03T11:01:45.258Z,92.80
2018-09-03T11:02:45.246Z,93.11
2018-09-03T11:03:45.257Z,92.71
2018-09-03T11:04:45.224Z,93.01
2018-09-03T11:05:45.235Z,92.85
2018-09-03T11:06:45.227Z,92.55
2018-09-03T11:07:45.191Z,93.01
2018-09-03T11:08:45.181Z,92.85
2018-09-03T11:09:45.169Z,92.05
2018-09-03T11:10:45.180Z,92.45
2018-09-03T11:11:45.147Z,92.95
2018-09-03T11:12:45.160Z,94.16
2018-09-03T11:13:45.125Z,93.26
2018-09-03T11:14:45.114Z,93.21
2018-09-03T11:15:45.101Z,92.75
2018-09-03T11:16:45.090Z,93.05
2018-09-03T11:17:45.127Z,92.91
2018-09-03T11:18:45.081Z,92.95
2018-09-03T11:19:45.062Z,93.01
2018-09-03T11:20:45.047Z,93.11
2018-09-03T11:21:45.315Z,93.71
2018-09-03T11:22:45.074Z,93.01
2018-09-03T11:23:45.013Z,93.51
2018-09-03T11:24:45.000Z,93.01
2018-09-03T11:25:45.010Z,94.21
2018-09-03T11:26:44.979Z,94.12
2018-09-03T11:27:44.967Z,94.01
2018-09-03T11:28:44.960Z,94.12
2018-09-03T11:29:44.945Z,94.72
2018-09-03T11:30:44.954Z,94.62
2018-09-03T11:31:44.922Z,94.32
2018-09-03T11:32:44.932Z,94.62
2018-09-03T11:33:44.899Z,94.42
2018-09-03T11:34:44.889Z,94.42
2018-09-03T11:35:44.899Z,94.62
2018-09-03T11:36:44.866Z,94.07
2018-09-03T11:37:44.880Z,92.96
2018-09-03T11:38:44.844Z,92.56
2018-09-03T11:39:44.833Z,91.91
2018-09-03T11:40:44.863Z,93.02
2018-09-03T11:41:44.832Z,92.61
2018-09-03T11:42:44.805Z,91.27
2018-09-03T11:43:44.814Z,91.87
2018-09-03T11:44:44.779Z,92.63
2018-09-03T11:45:44.765Z,91.87
2018-09-03T11:46:44.777Z,91.77
2018-09-03T11:47:44.744Z,90.92
2018-09-03T11:48:44.736Z,92.03
2018-09-03T11:49:44.727Z,91.32
2018-09-03T11:50:44.732Z,90.32
2018-09-03T11:51:44.699Z,90.06
2018-09-03T11:52:44.709Z,89.51
2018-09-03T11:53:44.677Z,90.26
2018-09-03T11:54:44.664Z,90.22
2018-09-03T11:55:44.654Z,90.72
2018-09-03T11:56:44.673Z,90.62
2018-09-03T11:57:44.653Z,90.78
2018-09-03T11:58:44.620Z,90.08
2018-09-03T11:59:44.609Z,90.78
2018-09-03T12:00:44.598Z,90.68
2018-09-03T12:01:44.612Z,88.57
2018-09-03T12:02:44.578Z,88.77
2018-09-03T12:03:44.565Z,88.97
2018-09-03T12:04:44.557Z,88.17
2018-09-03T12:05:44.543Z,87.37
2018-09-03T12:06:44.683Z,88.63
2018-09-03T12:07:44.518Z,88.27
2018-09-03T12:08:44.507Z,87.32
2018-09-03T12:09:44.500Z,88.12
2018-09-03T12:10:44.484Z,88.32
2018-09-03T12:11:44.495Z,87.82
2018-09-03T12:12:44.483Z,87.78
2018-09-03T12:13:44.450Z,85.88
2018-09-03T12:14:44.439Z,84.47
2018-09-03T12:15:44.430Z,85.02
2018-09-03T12:16:44.421Z,84.31
2018-09-03T12:17:44.427Z,84.91
2018-09-03T12:18:44.393Z,83.21
2018-09-03T12:19:44.383Z,85.97
2018-09-03T12:20:44.387Z,86.88
2018-09-03T12:21:44.360Z,86.58
2018-09-03T12:22:44.379Z,84.37
2018-09-03T12:23:44.339Z,86.08
2018-09-03T12:24:44.326Z,85.74
2018-09-03T12:25:44.315Z,86.14
2018-09-03T12:26:44.303Z,83.79
2018-09-03T12:27:44.332Z,84.79
2018-09-03T12:28:44.282Z,83.03
2018-09-03T12:29:44.270Z,82.79
2018-09-03T12:30:44.260Z,83.39
2018-09-03T12:31:44.248Z,82.59
2018-09-03T12:32:44.258Z,83.25
2018-09-03T12:33:44.250Z,83.15
2018-09-03T12:34:44.241Z,81.85
2018-09-03T12:35:44.206Z,80.80
2018-09-03T12:36:44.194Z,80.71
2018-09-03T12:37:44.186Z,81.67
2018-09-03T12:38:44.175Z,82.77
2018-09-03T12:39:44.183Z,82.23
2018-09-03T12:40:44.171Z,82.09
2018-09-03T12:41:44.139Z,81.29
2018-09-03T12:42:44.146Z,80.89
2018-09-03T12:43:44.116Z,80.59
2018-09-03T12:44:44.126Z,80.23
2018-09-03T12:45:44.094Z,78.53
2018-09-03T12:46:44.085Z,81.03
2018-09-03T12:47:44.103Z,82.03
2018-09-03T12:48:44.059Z,83.27
2018-09-03T12:49:44.047Z,81.53
2018-09-03T12:50:44.036Z,81.17
2018-09-03T12:51:44.025Z,79.27
2018-09-03T12:52:44.042Z,82.01